Time;durP1;ratioP1;P1;durP2;ratioP2;P2;SDS_P1;SDS_P2;PMS_P1;PMS_P2;Temp;Humidity;BMP_temperature;BMP_pressure;BME280_temperature;BME280_humidity;BME280_pressure;Samples;Min_cycle;Max_cycle;Signal;HPM_P1;HPM_P2
2021/08/01 00:01:08;;;;;;;2.63;2.43;;;18.80;1.00;;;;;;5056661;28;20468;-81
2021/08/01 00:03:35;;;;;;;5.00;3.77;;;18.80;1.00;;;;;;5035108;28;20444;-81
2021/08/01 00:06:01;;;;;;;3.67;2.70;;;18.80;1.00;;;;;;5056574;28;20416;-82
2021/08/01 00:08:28;;;;;;;12.73;10.23;;;18.70;1.00;;;;;;5041725;28;20441;-82
2021/08/01 00:10:57;;;;;;;3.13;2.70;;;18.70;1.00;;;;;;5051625;28;20439;-83
2021/08/01 00:13:25;;;;;;;3.50;3.20;;;18.70;1.00;;;;;;5053237;28;21026;-82
2021/08/01 00:15:52;;;;;;;4.30;2.83;;;18.70;1.00;;;;;;5052877;28;20432;-82
2021/08/01 00:18:18;;;;;;;3.20;2.90;;;18.70;1.00;;;;;;5055272;28;21374;-81
2021/08/01 00:20:45;;;;;;;3.10;2.80;;;18.60;1.00;;;;;;5056977;28;20562;-82
2021/08/01 00:23:12;;;;;;;2.80;2.53;;;18.60;1.00;;;;;;5053965;28;20452;-82
2021/08/01 00:25:38;;;;;;;3.83;2.67;;;18.50;1.00;;;;;;5056090;28;20459;-82
2021/08/01 00:28:05;;;;;;;4.67;3.07;;;18.60;1.00;;;;;;5058314;28;20432;-82
2021/08/01 00:30:33;;;;;;;7.30;3.43;;;18.60;1.00;;;;;;5059039;28;20452;-83
2021/08/01 00:33:00;;;;;;;5.93;3.57;;;18.50;1.00;;;;;;5058627;28;20642;-81
2021/08/01 00:35:27;;;;;;;4.20;3.10;;;18.50;1.00;;;;;;5053369;28;20458;-82
2021/08/01 00:37:53;;;;;;;3.57;2.90;;;18.40;1.00;;;;;;5054795;28;20883;-82
2021/08/01 00:40:22;;;;;;;4.47;3.40;;;18.40;1.00;;;;;;5056714;28;20467;-82
2021/08/01 00:42:49;;;;;;;4.60;3.30;;;18.40;1.00;;;;;;5055884;28;20465;-82
2021/08/01 00:45:16;;;;;;;4.13;3.73;;;18.40;1.00;;;;;;5055549;28;20526;-82
2021/08/01 00:47:45;;;;;;;3.90;3.20;;;18.40;1.00;;;;;;5053174;28;20419;-81
2021/08/01 00:50:13;;;;;;;2.90;2.70;;;18.30;1.00;;;;;;5054408;28;20463;-83
2021/08/01 00:52:40;;;;;;;3.50;2.83;;;18.30;1.00;;;;;;5038545;28;20456;-82
2021/08/01 00:55:09;;;;;;;3.30;3.00;;;18.30;1.00;;;;;;5055024;28;20469;-82
2021/08/01 00:57:36;;;;;;;3.77;3.40;;;18.30;1.00;;;;;;5052617;28;20458;-82
2021/08/01 01:00:05;;;;;;;3.03;2.73;;;18.20;1.00;;;;;;5057562;28;20497;-81
2021/08/01 01:02:36;;;;;;;5.13;2.97;;;18.20;1.00;;;;;;5052831;28;20483;-82
2021/08/01 01:05:11;;;;;;;3.83;2.90;;;18.20;1.00;;;;;;5055005;28;20463;-82
2021/08/01 01:07:42;;;;;;;3.63;3.20;;;18.20;1.00;;;;;;5066790;28;20466;-81
2021/08/01 01:10:10;;;;;;;3.37;3.07;;;18.20;1.00;;;;;;5051739;28;20462;-82
2021/08/01 01:12:42;;;;;;;3.03;2.60;;;18.20;1.00;;;;;;5056231;28;20546;-81
2021/08/01 01:15:13;;;;;;;3.43;3.00;;;18.20;1.00;;;;;;5054461;28;20450;-82
2021/08/01 01:17:45;;;;;;;2.90;2.70;;;18.20;1.00;;;;;;5054246;28;21575;-82
2021/08/01 01:20:39;;;;;;;3.93;2.97;;;18.20;1.00;;;;;;5051449;28;20490;-82
2021/08/01 01:23:24;;;;;;;3.37;3.07;;;18.20;1.00;;;;;;5056902;28;20463;-81
2021/08/01 01:26:00;;;;;;;3.20;2.90;;;18.10;1.00;;;;;;5053285;28;20554;-82
2021/08/01 01:28:33;;;;;;;4.03;3.53;;;18.10;1.00;;;;;;5051420;28;21304;-82
2021/08/01 01:31:08;;;;;;;4.60;3.43;;;18.10;1.00;;;;;;5075992;22;20497;-85
2021/08/01 01:33:37;;;;;;;4.90;2.83;;;18.10;1.00;;;;;;5080932;28;20520;-86
2021/08/01 01:36:07;;;;;;;3.60;3.33;;;18.10;1.00;;;;;;5077919;28;20458;-84
2021/08/01 01:38:36;;;;;;;5.90;3.47;;;18.00;1.00;;;;;;5088860;28;20667;-85
2021/08/01 01:41:04;;;;;;;4.40;3.37;;;18.00;1.00;;;;;;5067300;28;20594;-87
2021/08/01 01:43:31;;;;;;;5.00;3.27;;;18.10;1.00;;;;;;5096223;28;20502;-84
2021/08/01 01:45:58;;;;;;;3.43;3.13;;;18.00;1.00;;;;;;5094062;27;20449;-84
2021/08/01 01:48:25;;;;;;;4.57;2.90;;;18.10;1.00;;;;;;5106429;27;20412;-84
2021/08/01 01:50:51;;;;;;;4.50;4.10;;;18.00;1.00;;;;;;5114121;27;20474;-83
2021/08/01 01:53:19;;;;;;;3.43;3.13;;;18.00;1.00;;;;;;5110554;27;20450;-84
2021/08/01 01:55:47;;;;;;;3.30;2.80;;;18.00;1.00;;;;;;5110301;27;20412;-83
2021/08/01 01:58:14;;;;;;;3.90;3.27;;;18.00;1.00;;;;;;5101741;28;20409;-84
2021/08/01 02:00:41;;;;;;;3.67;3.23;;;18.00;1.00;;;;;;5099639;28;20467;-84
2021/08/01 02:03:08;;;;;;;4.53;4.13;;;18.00;1.00;;;;;;5108147;28;20411;-85
2021/08/01 02:05:34;;;;;;;6.73;3.40;;;17.90;1.00;;;;;;5110047;27;20418;-85
2021/08/01 02:08:02;;;;;;;4.63;3.40;;;17.90;1.00;;;;;;5083373;28;20493;-86
2021/08/01 02:10:35;;;;;;;3.80;3.40;;;17.90;1.00;;;;;;5081901;28;20554;-86
2021/08/01 02:13:05;;;;;;;3.13;2.90;;;17.90;1.00;;;;;;5087554;28;20459;-85
2021/08/01 02:15:35;;;;;;;3.37;3.07;;;17.90;1.00;;;;;;5088594;28;20469;-88
2021/08/01 02:18:04;;;;;;;4.17;3.77;;;17.90;1.00;;;;;;5080301;28;20440;-85
2021/08/01 02:20:37;;;;;;;5.73;4.00;;;17.90;1.00;;;;;;5080284;28;20454;-85
2021/08/01 02:23:07;;;;;;;4.27;3.77;;;17.80;1.00;;;;;;5072163;28;20483;-86
2021/08/01 02:25:34;;;;;;;4.30;3.90;;;17.80;1.00;;;;;;5066009;28;20468;-86
2021/08/01 02:28:04;;;;;;;4.30;3.90;;;17.80;1.00;;;;;;5085264;28;20436;-86
2021/08/01 02:30:32;;;;;;;4.70;3.53;;;17.80;1.00;;;;;;5080716;28;20510;-86
2021/08/01 02:32:59;;;;;;;4.67;4.00;;;17.70;1.00;;;;;;5081335;28;20450;-86
2021/08/01 02:35:26;;;;;;;4.43;4.03;;;17.70;1.00;;;;;;5083006;28;20471;-86
2021/08/01 02:37:55;;;;;;;4.33;3.93;;;17.70;1.00;;;;;;5094625;27;20505;-84
2021/08/01 02:40:23;;;;;;;4.63;4.03;;;17.70;1.00;;;;;;5096607;27;20475;-84
2021/08/01 02:42:51;;;;;;;4.40;4.00;;;17.70;1.00;;;;;;5093152;27;20423;-86
2021/08/01 02:45:19;;;;;;;3.90;3.50;;;17.70;1.00;;;;;;5083640;28;20510;-86
2021/08/01 02:47:50;;;;;;;3.33;3.10;;;17.70;1.00;;;;;;5081090;28;20450;-85
2021/08/01 02:50:19;;;;;;;8.00;5.20;;;17.70;1.00;;;;;;5064725;28;20585;-86
2021/08/01 02:52:52;;;;;;;4.20;3.90;;;17.60;1.00;;;;;;5076679;28;20470;-85
2021/08/01 02:55:19;;;;;;;5.10;3.73;;;17.60;1.00;;;;;;5082137;28;21272;-85
2021/08/01 02:57:48;;;;;;;4.40;4.00;;;17.60;1.00;;;;;;5065406;28;20501;-85
2021/08/01 03:00:17;;;;;;;4.63;4.10;;;17.60;1.00;;;;;;5081974;28;20441;-86
2021/08/01 03:02:47;;;;;;;4.13;3.73;;;17.60;1.00;;;;;;5080308;28;20462;-85
2021/08/01 03:05:15;;;;;;;4.77;4.03;;;17.60;1.00;;;;;;5082039;28;20468;-86
2021/08/01 03:07:42;;;;;;;5.00;4.50;;;17.50;1.00;;;;;;5077744;28;21293;-85
2021/08/01 03:10:10;;;;;;;8.43;4.10;;;17.50;1.00;;;;;;5080793;28;20447;-86
2021/08/01 03:12:41;;;;;;;4.23;3.83;;;17.50;1.00;;;;;;5080714;28;20481;-85
2021/08/01 03:15:09;;;;;;;5.00;4.13;;;17.50;1.00;;;;;;5077749;28;20455;-86
2021/08/01 03:17:35;;;;;;;5.10;4.27;;;17.50;1.00;;;;;;5075444;28;20446;-86
2021/08/01 03:20:04;;;;;;;6.70;4.20;;;17.50;1.00;;;;;;5076415;28;21334;-86
2021/08/01 03:22:31;;;;;;;4.77;4.37;;;17.40;1.00;;;;;;5079868;28;20450;-86
2021/08/01 03:24:58;;;;;;;6.07;5.03;;;17.40;1.00;;;;;;5079224;28;20544;-86
2021/08/01 03:27:25;;;;;;;4.20;3.80;;;17.30;1.00;;;;;;5082552;28;20437;-87
2021/08/01 03:29:52;;;;;;;5.63;5.23;;;17.30;1.00;;;;;;5084676;28;21241;-86
2021/08/01 03:32:19;;;;;;;4.63;4.13;;;17.30;1.00;;;;;;5080281;28;20731;-86
2021/08/01 03:34:46;;;;;;;4.90;4.27;;;17.30;1.00;;;;;;5083397;28;21055;-86
2021/08/01 03:37:14;;;;;;;4.83;3.60;;;17.30;1.00;;;;;;5070633;28;20453;-86
2021/08/01 03:39:41;;;;;;;5.20;4.50;;;17.30;1.00;;;;;;5096972;28;20482;-85
2021/08/01 03:42:08;;;;;;;4.60;4.20;;;17.30;1.00;;;;;;5098366;28;20426;-86
2021/08/01 03:44:35;;;;;;;5.17;4.53;;;17.30;1.00;;;;;;5097122;28;20456;-85
2021/08/01 03:47:01;;;;;;;4.37;3.97;;;17.30;1.00;;;;;;5090658;28;21058;-87
2021/08/01 03:49:28;;;;;;;4.33;3.93;;;17.30;1.00;;;;;;5091384;28;20477;-86
2021/08/01 03:51:55;;;;;;;4.77;4.37;;;17.30;1.00;;;;;;5087748;28;20451;-85
2021/08/01 03:54:23;;;;;;;4.37;3.97;;;17.30;1.00;;;;;;5086377;28;20519;-86
2021/08/01 03:56:49;;;;;;;7.90;4.07;;;17.40;1.00;;;;;;5091875;28;20593;-85
2021/08/01 03:59:16;;;;;;;4.70;4.20;;;17.40;1.00;;;;;;5098467;28;20437;-84
2021/08/01 04:01:43;;;;;;;4.30;3.90;;;17.30;1.00;;;;;;5110681;27;20437;-84
2021/08/01 04:04:10;;;;;;;4.57;3.80;;;17.40;1.00;;;;;;5116178;27;20446;-85
2021/08/01 04:06:37;;;;;;;5.17;4.10;;;17.40;1.00;;;;;;5102906;27;20394;-85
2021/08/01 04:09:05;;;;;;;7.03;4.10;;;17.40;1.00;;;;;;5113178;27;20414;-85
2021/08/01 04:11:33;;;;;;;4.53;4.13;;;17.40;1.00;;;;;;5111100;27;20429;-84
2021/08/01 04:14:00;;;;;;;4.60;4.20;;;17.50;1.00;;;;;;5116963;27;20458;-84
2021/08/01 04:16:26;;;;;;;4.20;3.80;;;17.50;1.00;;;;;;5113204;27;20406;-85
2021/08/01 04:18:53;;;;;;;4.70;4.27;;;17.50;1.00;;;;;;5106803;27;20432;-85
2021/08/01 04:21:20;;;;;;;4.63;4.17;;;17.50;1.00;;;;;;5109224;27;20484;-85
2021/08/01 04:23:47;;;;;;;4.67;3.80;;;17.50;1.00;;;;;;5115185;27;20426;-85
2021/08/01 04:26:13;;;;;;;5.77;3.43;;;17.50;1.00;;;;;;5100316;28;20415;-85
2021/08/01 04:28:41;;;;;;;4.30;3.77;;;17.60;1.00;;;;;;5099778;28;20671;-86
2021/08/01 04:31:08;;;;;;;3.40;3.10;;;17.60;1.00;;;;;;5107060;28;20466;-84
2021/08/01 04:33:35;;;;;;;6.23;3.87;;;17.60;1.00;;;;;;5103820;27;20458;-85
2021/08/01 04:36:02;;;;;;;4.60;4.20;;;17.70;1.00;;;;;;5077602;28;20410;-85
2021/08/01 04:38:29;;;;;;;3.83;3.47;;;17.70;1.00;;;;;;5091790;28;20406;-86
2021/08/01 04:40:55;;;;;;;4.13;3.70;;;17.70;1.00;;;;;;5095019;28;20450;-85
2021/08/01 04:43:22;;;;;;;4.80;4.00;;;17.80;1.00;;;;;;5093196;28;20502;-85
2021/08/01 04:45:50;;;;;;;3.93;3.63;;;17.70;1.00;;;;;;5089793;28;20511;-86
2021/08/01 04:48:17;;;;;;;4.30;3.63;;;17.80;1.00;;;;;;5089527;28;20450;-85
2021/08/01 04:50:43;;;;;;;4.33;3.93;;;17.80;1.00;;;;;;5088780;28;20441;-85
2021/08/01 04:53:10;;;;;;;6.20;5.60;;;17.90;1.00;;;;;;5082109;28;20450;-86
2021/08/01 04:55:37;;;;;;;5.70;4.17;;;17.90;1.00;;;;;;5061032;28;20915;-86
2021/08/01 04:58:04;;;;;;;5.00;3.50;;;17.90;1.00;;;;;;5080919;28;21313;-86
2021/08/01 05:00:31;;;;;;;3.90;3.47;;;17.90;1.00;;;;;;5080346;28;20447;-86
2021/08/01 05:03:04;;;;;;;4.87;3.97;;;18.00;1.00;;;;;;5081704;28;20480;-86
2021/08/01 05:05:35;;;;;;;4.63;4.10;;;18.00;1.00;;;;;;5084737;28;20491;-85
2021/08/01 05:08:03;;;;;;;5.40;4.17;;;18.00;1.00;;;;;;5079993;28;20832;-86
2021/08/01 05:10:29;;;;;;;4.07;3.67;;;18.10;1.00;;;;;;5084806;28;20542;-86
2021/08/01 05:12:56;;;;;;;4.90;4.50;;;18.10;1.00;;;;;;5081328;28;20502;-86
2021/08/01 05:15:23;;;;;;;5.30;4.37;;;18.10;1.00;;;;;;5073932;28;20439;-85
2021/08/01 05:17:50;;;;;;;5.27;4.67;;;18.20;1.00;;;;;;5088041;28;23814;-85
2021/08/01 05:20:18;;;;;;;4.67;4.27;;;18.30;1.00;;;;;;5087677;28;20473;-85
2021/08/01 05:22:46;;;;;;;5.33;4.00;;;18.30;1.00;;;;;;5079493;28;21143;-86
2021/08/01 05:25:13;;;;;;;4.70;4.27;;;18.40;1.00;;;;;;5083986;28;21127;-85
2021/08/01 05:27:40;;;;;;;7.63;4.77;;;18.40;1.00;;;;;;5060804;28;20583;-85
2021/08/01 05:30:07;;;;;;;8.50;5.00;;;18.40;1.00;;;;;;5080664;28;20854;-85
2021/08/01 05:32:34;;;;;;;4.23;3.83;;;18.40;1.00;;;;;;5073628;28;20526;-85
2021/08/01 05:35:01;;;;;;;4.90;4.40;;;18.40;1.00;;;;;;5062009;28;20449;-85
2021/08/01 05:37:31;;;;;;;4.30;3.90;;;18.40;1.00;;;;;;5081069;28;20595;-86
2021/08/01 05:39:58;;;;;;;4.50;3.80;;;18.50;1.00;;;;;;5083913;28;20467;-85
2021/08/01 05:42:24;;;;;;;4.87;4.47;;;18.50;1.00;;;;;;5075093;28;20471;-85
2021/08/01 05:44:51;;;;;;;4.30;3.90;;;18.50;1.00;;;;;;5072462;28;20440;-86
2021/08/01 05:47:18;;;;;;;4.17;3.80;;;18.60;1.00;;;;;;5070459;28;20979;-86
2021/08/01 05:49:44;;;;;;;7.07;4.37;;;18.50;1.00;;;;;;5074925;28;20455;-86
2021/08/01 05:52:14;;;;;;;6.67;6.00;;;18.60;1.00;;;;;;5075021;28;20549;-85
2021/08/01 05:54:43;;;;;;;5.13;4.53;;;18.60;1.00;;;;;;5057174;28;20451;-85
2021/08/01 05:57:09;;;;;;;4.80;4.10;;;18.50;1.00;;;;;;5075194;28;20416;-86
2021/08/01 05:59:36;;;;;;;4.70;4.17;;;18.50;1.00;;;;;;5080275;28;20446;-85
2021/08/01 06:02:03;;;;;;;5.07;4.57;;;18.50;1.00;;;;;;5077388;28;20474;-86
2021/08/01 06:04:30;;;;;;;5.50;5.07;;;18.50;1.00;;;;;;5075042;28;20474;-86
2021/08/01 06:06:56;;;;;;;4.97;4.50;;;18.50;1.00;;;;;;5084865;28;20486;-86
2021/08/01 06:09:23;;;;;;;4.77;4.37;;;18.60;1.00;;;;;;5089019;28;21019;-85
2021/08/01 06:11:51;;;;;;;6.00;4.20;;;18.70;1.00;;;;;;5073334;28;20938;-85
2021/08/01 06:14:18;;;;;;;4.33;3.93;;;18.80;1.00;;;;;;5091687;28;21650;-86
2021/08/01 06:16:44;;;;;;;4.57;4.17;;;18.90;1.00;;;;;;5085466;28;20471;-86
2021/08/01 06:19:11;;;;;;;4.83;4.20;;;19.00;1.00;;;;;;5082928;28;20482;-86
2021/08/01 06:21:38;;;;;;;4.70;4.30;;;19.00;1.00;;;;;;5089759;28;20455;-86
2021/08/01 06:24:05;;;;;;;5.03;4.53;;;19.10;1.00;;;;;;5090829;28;20453;-86
2021/08/01 06:26:32;;;;;;;5.60;4.60;;;19.20;1.00;;;;;;5086386;28;20463;-85
2021/08/01 06:29:00;;;;;;;6.60;4.77;;;19.20;1.00;;;;;;5088221;28;20404;-86
2021/08/01 06:31:26;;;;;;;5.10;4.60;;;19.30;1.00;;;;;;5093821;28;20477;-86
2021/08/01 06:33:53;;;;;;;4.60;4.20;;;19.40;1.00;;;;;;5092347;28;20426;-85
2021/08/01 06:36:20;;;;;;;5.00;4.50;;;19.50;1.00;;;;;;5097569;28;20419;-85
2021/08/01 06:38:47;;;;;;;4.60;3.87;;;19.50;1.00;;;;;;5105150;27;20430;-84
2021/08/01 06:41:14;;;;;;;4.40;4.00;;;19.60;1.00;;;;;;5078873;28;20444;-84
2021/08/01 06:43:40;;;;;;;4.70;4.30;;;19.60;1.00;;;;;;5094143;28;20438;-86
2021/08/01 06:46:08;;;;;;;4.07;3.70;;;19.60;1.00;;;;;;5081946;28;20542;-86
2021/08/01 06:48:35;;;;;;;6.17;4.10;;;19.70;1.00;;;;;;5077384;28;21783;-86
2021/08/01 06:51:02;;;;;;;5.50;3.90;;;19.70;1.00;;;;;;5076597;28;20492;-86
2021/08/01 06:53:29;;;;;;;3.70;3.40;;;19.70;1.00;;;;;;5079604;28;20899;-86
2021/08/01 06:55:57;;;;;;;3.87;3.30;;;19.60;1.00;;;;;;5078314;28;20425;-86
2021/08/01 06:58:24;;;;;;;5.30;3.07;;;19.70;1.00;;;;;;5083908;28;20614;-85
2021/08/01 07:00:52;;;;;;;3.87;3.57;;;19.70;1.00;;;;;;5078760;28;20482;-85
2021/08/01 07:03:20;;;;;;;3.50;2.60;;;19.80;1.00;;;;;;5084310;28;20408;-85
2021/08/01 07:05:47;;;;;;;3.17;2.87;;;19.80;1.00;;;;;;5085475;28;20445;-85
2021/08/01 07:08:14;;;;;;;3.43;2.97;;;19.90;1.00;;;;;;5080056;28;20440;-85
2021/08/01 07:10:40;;;;;;;3.20;2.90;;;20.00;1.00;;;;;;5079957;28;20475;-85
2021/08/01 07:13:09;;;;;;;3.20;2.90;;;20.00;1.00;;;;;;5086319;28;20461;-85
2021/08/01 07:15:37;;;;;;;3.27;2.97;;;20.00;1.00;;;;;;5084565;28;20450;-85
2021/08/01 07:18:04;;;;;;;2.97;2.67;;;20.00;1.00;;;;;;5072004;28;20553;-86
2021/08/01 07:20:33;;;;;;;3.90;3.30;;;20.10;1.00;;;;;;5058536;28;20463;-85
2021/08/01 07:23:00;;;;;;;4.13;3.37;;;20.10;1.00;;;;;;5082764;28;20581;-86
2021/08/01 07:25:27;;;;;;;2.90;2.53;;;20.30;1.00;;;;;;5078022;28;20535;-86
2021/08/01 07:27:55;;;;;;;3.03;2.70;;;20.40;1.00;;;;;;5079167;28;20467;-85
2021/08/01 07:30:22;;;;;;;3.63;2.73;;;20.40;1.00;;;;;;5084052;28;20527;-85
2021/08/01 07:32:49;;;;;;;3.97;2.30;;;20.30;1.00;;;;;;5061662;28;20414;-85
2021/08/01 07:35:16;;;;;;;3.07;2.77;;;20.20;1.00;;;;;;5077853;28;20456;-84
2021/08/01 07:37:44;;;;;;;3.07;2.60;;;20.20;1.00;;;;;;5075393;28;20455;-84
2021/08/01 07:40:11;;;;;;;2.73;2.43;;;20.20;1.00;;;;;;5075767;28;20582;-84
2021/08/01 07:42:37;;;;;;;4.47;2.87;;;20.30;1.00;;;;;;5078857;28;20439;-85
2021/08/01 07:45:09;;;;;;;3.47;2.90;;;20.40;1.00;;;;;;5073514;28;20447;-85
2021/08/01 07:47:37;;;;;;;4.33;2.90;;;20.50;1.00;;;;;;5091514;22;20516;-82
2021/08/01 07:50:05;;;;;;;3.57;2.60;;;20.60;1.00;;;;;;5078960;28;21484;-80
2021/08/01 07:52:32;;;;;;;3.83;3.10;;;20.70;1.00;;;;;;5060361;28;20451;-80
2021/08/01 07:55:00;;;;;;;3.60;2.80;;;20.70;1.00;;;;;;5081936;27;20430;-82
2021/08/01 07:57:29;;;;;;;3.47;3.10;;;20.90;1.00;;;;;;5080439;28;20526;-83
2021/08/01 07:59:58;;;;;;;2.87;2.67;;;21.00;1.00;;;;;;5081900;28;20858;-80
2021/08/01 08:02:25;;;;;;;5.17;2.60;;;21.20;1.00;;;;;;5082152;28;20500;-79
2021/08/01 08:04:53;;;;;;;2.73;2.50;;;21.30;1.00;;;;;;5101656;28;20559;-83
2021/08/01 08:07:20;;;;;;;3.27;2.73;;;21.40;1.00;;;;;;5104619;28;20405;-83
2021/08/01 08:09:47;;;;;;;3.83;2.90;;;21.40;1.00;;;;;;5103341;28;20468;-83
2021/08/01 08:12:15;;;;;;;3.20;2.80;;;21.50;1.00;;;;;;5103520;28;20789;-83
2021/08/01 08:14:41;;;;;;;3.93;3.10;;;21.40;1.00;;;;;;5096881;28;21341;-84
2021/08/01 08:17:10;;;;;;;3.63;3.33;;;21.30;1.00;;;;;;5083811;28;20437;-82
2021/08/01 08:19:38;;;;;;;3.70;2.83;;;21.30;1.00;;;;;;5090452;28;20491;-86
2021/08/01 08:22:05;;;;;;;3.50;3.00;;;21.20;1.00;;;;;;5093255;28;21227;-87
2021/08/01 08:24:32;;;;;;;3.67;3.30;;;21.20;1.00;;;;;;5098654;22;20494;-86
2021/08/01 08:26:59;;;;;;;4.10;3.13;;;21.20;1.00;;;;;;5086385;28;20411;-86
2021/08/01 08:29:27;;;;;;;5.63;2.97;;;21.10;1.00;;;;;;5084328;28;20484;-87
2021/08/01 08:31:54;;;;;;;3.73;3.30;;;21.10;1.00;;;;;;5085540;28;20456;-88
2021/08/01 08:34:23;;;;;;;4.97;3.87;;;20.90;1.00;;;;;;5086843;28;20453;-87
2021/08/01 08:36:51;;;;;;;3.27;2.90;;;20.90;1.00;;;;;;5085155;28;21215;-88
2021/08/01 08:39:21;;;;;;;3.83;3.47;;;20.90;1.00;;;;;;5082900;28;21193;-86
2021/08/01 08:41:48;;;;;;;3.70;3.40;;;20.80;1.00;;;;;;5088047;28;21089;-87
2021/08/01 08:44:17;;;;;;;3.10;2.80;;;21.00;1.00;;;;;;5079674;28;20432;-86
2021/08/01 08:46:48;;;;;;;4.30;3.67;;;21.10;1.00;;;;;;5084774;28;20455;-86
2021/08/01 08:49:16;;;;;;;3.63;2.83;;;21.30;1.00;;;;;;5082213;28;20471;-87
2021/08/01 08:51:45;;;;;;;3.40;3.10;;;21.60;1.00;;;;;;5086012;28;20441;-87
2021/08/01 08:54:15;;;;;;;3.90;3.60;;;21.80;1.00;;;;;;5096419;28;20465;-87
2021/08/01 08:56:42;;;;;;;3.97;3.57;;;21.80;1.00;;;;;;5082047;28;20455;-87
2021/08/01 08:59:12;;;;;;;3.57;2.93;;;21.80;1.00;;;;;;5089407;28;20509;-88
2021/08/01 09:01:40;;;;;;;3.40;3.10;;;21.70;1.00;;;;;;5088074;28;20461;-87
2021/08/01 09:04:10;;;;;;;3.60;3.30;;;21.80;1.00;;;;;;5087019;28;20654;-87
2021/08/01 09:06:37;;;;;;;4.90;3.20;;;22.00;1.00;;;;;;5076769;28;20429;-84
2021/08/01 09:09:04;;;;;;;4.53;3.70;;;22.20;1.00;;;;;;5088494;28;20508;-86
2021/08/01 09:11:31;;;;;;;7.17;5.27;;;22.30;1.00;;;;;;5086854;28;20508;-85
2021/08/01 09:13:59;;;;;;;6.80;3.70;;;22.40;1.00;;;;;;5086781;28;20472;-85
2021/08/01 09:16:41;;;;;;;3.20;2.90;;;22.30;1.00;;;;;;5080770;28;20426;-85
2021/08/01 09:19:23;;;;;;;3.90;3.50;;;22.30;1.00;;;;;;5084395;28;20899;-87
2021/08/01 09:21:49;;;;;;;3.20;2.90;;;22.40;1.00;;;;;;5079621;28;20469;-86
2021/08/01 09:24:16;;;;;;;3.77;3.10;;;22.50;1.00;;;;;;5085511;28;20446;-85
2021/08/01 09:26:44;;;;;;;4.13;3.73;;;22.40;1.00;;;;;;5082098;28;20971;-86
2021/08/01 09:29:11;;;;;;;4.40;3.57;;;22.60;1.00;;;;;;5067605;28;20593;-85
2021/08/01 09:31:38;;;;;;;4.10;2.70;;;22.60;1.00;;;;;;5086873;28;20420;-85
2021/08/01 09:34:25;;;;;;;3.63;3.30;;;22.70;1.00;;;;;;5082316;28;21675;-87
2021/08/01 09:36:59;;;;;;;4.33;3.93;;;22.80;1.00;;;;;;5088934;28;20410;-84
2021/08/01 09:39:27;;;;;;;3.80;3.27;;;22.70;1.00;;;;;;5076491;28;20432;-86
2021/08/01 09:42:17;;;;;;;3.30;3.00;;;22.60;1.00;;;;;;5086615;28;20621;-89
2021/08/01 09:44:44;;;;;;;6.13;5.57;;;22.60;1.00;;;;;;5091172;28;20457;-85
2021/08/01 09:47:22;;;;;;;5.13;3.20;;;22.80;1.00;;;;;;5085489;28;20449;-85
2021/08/01 09:50:05;;;;;;;4.10;3.70;;;23.00;1.00;;;;;;5091136;27;20446;-86
2021/08/01 09:52:32;;;;;;;4.33;3.90;;;23.30;1.00;;;;;;5071610;28;20453;-87
2021/08/01 09:54:58;;;;;;;3.73;3.20;;;23.40;1.00;;;;;;5084558;28;21287;-80
2021/08/01 09:57:25;;;;;;;3.30;3.00;;;23.60;1.00;;;;;;5088520;28;20445;-83
2021/08/01 10:00:06;;;;;;;3.50;3.20;;;23.60;1.00;;;;;;5092493;27;20501;-83
2021/08/01 10:02:37;;;;;;;4.30;3.23;;;23.60;1.00;;;;;;5086752;28;20566;-82
2021/08/01 10:05:17;;;;;;;3.77;3.37;;;23.10;1.00;;;;;;5085101;28;20441;-82
2021/08/01 10:07:45;;;;;;;8.57;4.23;;;22.90;1.00;;;;;;5088171;28;20445;-82
2021/08/01 10:10:23;;;;;;;6.17;3.27;;;23.00;1.00;;;;;;5088334;28;20442;-83
2021/08/01 10:12:53;;;;;;;4.10;3.60;;;23.20;1.00;;;;;;5092484;28;20453;-83
2021/08/01 10:15:20;;;;;;;3.60;3.30;;;23.50;1.00;;;;;;5087905;28;20439;-83
2021/08/01 10:17:47;;;;;;;3.63;3.23;;;23.70;1.00;;;;;;5089141;28;20491;-83
2021/08/01 10:20:15;;;;;;;3.50;3.20;;;23.70;1.00;;;;;;5088208;28;20450;-83
2021/08/01 10:22:43;;;;;;;3.27;2.80;;;23.60;1.00;;;;;;5084904;28;20468;-84
2021/08/01 10:25:12;;;;;;;3.53;3.23;;;23.40;1.00;;;;;;5093735;28;20624;-84
2021/08/01 10:27:45;;;;;;;3.53;3.20;;;23.10;1.00;;;;;;5088538;28;20778;-84
2021/08/01 10:30:14;;;;;;;3.43;3.13;;;22.90;1.00;;;;;;5090163;28;20453;-84
2021/08/01 10:32:45;;;;;;;4.00;3.03;;;22.90;1.00;;;;;;5083667;28;20452;-82
2021/08/01 10:35:17;;;;;;;3.60;3.30;;;23.00;1.00;;;;;;5091893;28;20423;-83
2021/08/01 10:37:52;;;;;;;3.80;3.50;;;22.90;1.00;;;;;;5085993;28;20451;-85
2021/08/01 10:40:20;;;;;;;4.40;2.90;;;23.00;1.00;;;;;;5076800;28;20473;-83
2021/08/01 10:42:51;;;;;;;4.87;3.00;;;23.10;1.00;;;;;;5091207;28;20455;-83
2021/08/01 10:45:19;;;;;;;3.53;2.83;;;23.40;1.00;;;;;;5091305;28;20415;-84
2021/08/01 10:47:48;;;;;;;3.37;2.60;;;23.60;1.00;;;;;;5091477;28;20476;-84
2021/08/01 10:50:19;;;;;;;3.13;2.80;;;23.80;1.00;;;;;;5088177;28;20427;-84
2021/08/01 10:52:45;;;;;;;3.10;2.80;;;24.20;1.00;;;;;;5092256;28;20447;-84
2021/08/01 10:55:22;;;;;;;5.37;2.97;;;24.40;1.00;;;;;;5088907;28;20445;-82
2021/08/01 10:58:10;;;;;;;4.50;2.77;;;24.20;1.00;;;;;;5092615;28;20448;-82
2021/08/01 11:00:59;;;;;;;3.20;2.90;;;24.10;1.00;;;;;;5095364;28;20458;-82
2021/08/01 11:03:25;;;;;;;6.23;3.60;;;24.40;1.00;;;;;;5085077;28;20464;-82
2021/08/01 11:05:53;;;;;;;3.67;3.37;;;25.00;1.00;;;;;;5095122;28;20445;-82
2021/08/01 11:08:22;;;;;;;3.50;2.97;;;25.30;1.00;;;;;;5090387;28;20407;-84
2021/08/01 11:11:13;;;;;;;3.47;2.60;;;25.70;1.00;;;;;;5074413;28;20538;-83
2021/08/01 11:13:43;;;;;;;3.37;3.07;;;25.90;1.00;;;;;;5095660;28;20447;-83
2021/08/01 11:16:15;;;;;;;3.60;3.30;;;25.80;1.00;;;;;;5095620;28;20453;-83
2021/08/01 11:18:44;;;;;;;3.33;3.03;;;25.90;1.00;;;;;;5091432;28;21322;-84
2021/08/01 11:21:13;;;;;;;5.60;4.97;;;25.80;1.00;;;;;;5094081;28;20451;-82
2021/08/01 11:24:09;;;;;;;3.70;3.40;;;25.50;1.00;;;;;;5091608;28;20427;-83
2021/08/01 11:26:37;;;;;;;3.47;3.17;;;25.60;1.00;;;;;;5073005;28;20430;-83
2021/08/01 11:29:07;;;;;;;4.10;3.73;;;25.80;1.00;;;;;;5081922;28;21324;-84
2021/08/01 11:31:34;;;;;;;2.93;2.60;;;25.80;1.00;;;;;;5080952;28;20891;-82
2021/08/01 11:34:16;;;;;;;4.40;2.63;;;26.00;1.00;;;;;;5089655;28;20451;-84
2021/08/01 11:36:45;;;;;;;5.27;3.03;;;26.20;1.00;;;;;;5090645;28;20424;-82
2021/08/01 11:39:12;;;;;;;2.93;2.63;;;26.40;1.00;;;;;;5089786;28;20443;-84
2021/08/01 11:41:41;;;;;;;3.13;2.83;;;26.40;1.00;;;;;;5092476;28;20419;-83
2021/08/01 11:44:20;;;;;;;4.30;3.20;;;26.20;1.00;;;;;;5090889;28;20455;-82
2021/08/01 11:47:02;;;;;;;2.93;2.63;;;26.00;1.00;;;;;;5078555;28;20407;-85
2021/08/01 11:49:35;;;;;;;4.33;3.03;;;25.70;1.00;;;;;;5101614;28;20424;-83
2021/08/01 11:52:05;;;;;;;3.00;2.60;;;25.20;1.00;;;;;;5100433;28;20477;-83
2021/08/01 11:54:33;;;;;;;3.60;3.13;;;25.00;1.00;;;;;;5092988;28;20443;-82
2021/08/01 11:57:02;;;;;;;4.00;2.90;;;25.10;1.00;;;;;;5094180;28;21342;-82
2021/08/01 11:59:29;;;;;;;3.33;3.03;;;25.20;1.00;;;;;;5096369;28;20426;-83
2021/08/01 12:01:57;;;;;;;3.90;3.23;;;25.50;1.00;;;;;;5090040;28;20501;-83
2021/08/01 12:04:25;;;;;;;4.73;3.60;;;25.80;1.00;;;;;;5087700;28;20493;-83
2021/08/01 12:06:54;;;;;;;4.43;3.07;;;26.10;1.00;;;;;;5075362;28;21679;-83
2021/08/01 12:09:25;;;;;;;3.43;2.90;;;26.30;1.00;;;;;;5089003;28;20434;-82
2021/08/01 12:11:53;;;;;;;4.70;3.20;;;26.50;1.00;;;;;;5091202;28;20453;-82
2021/08/01 12:14:23;;;;;;;4.40;3.97;;;26.80;1.00;;;;;;5088878;28;20444;-82
2021/08/01 12:16:55;;;;;;;3.83;2.97;;;26.80;1.00;;;;;;5168688;22;20490;-81
2021/08/01 12:19:23;;;;;;;2.97;2.67;;;26.60;1.00;;;;;;5077051;28;20458;-82
2021/08/01 12:21:52;;;;;;;4.30;2.77;;;26.60;1.00;;;;;;5078273;28;20964;-83
2021/08/01 12:24:39;;;;;;;3.50;3.20;;;26.50;1.00;;;;;;5121182;22;20453;-81
2021/08/01 12:27:09;;;;;;;3.17;2.87;;;26.60;1.00;;;;;;5070586;28;20408;-83
2021/08/01 12:29:39;;;;;;;4.93;2.97;;;26.90;1.00;;;;;;5076435;28;20432;-82
2021/08/01 12:32:28;;;;;;;4.53;2.73;;;27.10;1.00;;;;;;5080527;28;20472;-82
2021/08/01 12:35:05;;;;;;;5.23;2.47;;;27.20;1.00;;;;;;5087004;28;20434;-85
2021/08/01 12:37:41;;;;;;;2.73;2.50;;;27.40;1.00;;;;;;5242138;22;20601;-83
2021/08/01 12:40:13;;;;;;;3.70;2.97;;;27.50;1.00;;;;;;5076814;27;20475;-84
2021/08/01 12:42:56;;;;;;;3.10;2.80;;;27.50;1.00;;;;;;5154523;22;20490;-83
2021/08/01 12:45:30;;;;;;;3.67;3.37;;;27.50;1.00;;;;;;5072329;28;20408;-84
2021/08/01 12:47:58;;;;;;;3.20;2.60;;;28.20;1.00;;;;;;5069010;28;20409;-82
2021/08/01 12:50:29;;;;;;;2.80;2.60;;;28.50;1.00;;;;;;5060947;28;21007;-83
2021/08/01 12:53:12;;;;;;;3.63;3.30;;;28.30;1.00;;;;;;5155252;22;20431;-83
2021/08/01 12:55:41;;;;;;;3.40;2.73;;;29.00;1.00;;;;;;5090101;28;20453;-81
2021/08/01 12:58:11;;;;;;;2.90;2.70;;;29.60;1.00;;;;;;5088854;28;20530;-84
2021/08/01 13:00:39;;;;;;;3.23;2.30;;;29.10;1.00;;;;;;5091613;27;20449;-82
2021/08/01 13:03:11;;;;;;;3.23;2.90;;;28.70;1.00;;;;;;5090672;28;20552;-83
2021/08/01 13:05:38;;;;;;;5.07;3.30;;;28.80;1.00;;;;;;5079845;27;20415;-83
2021/08/01 13:08:06;;;;;;;2.60;2.20;;;28.30;1.00;;;;;;5083584;28;20597;-83